Time;durP1;ratioP1;P1;durP2;ratioP2;P2;SDS_P1;SDS_P2;PMS_P1;PMS_P2;Temp;Humidity;BMP_temperature;BMP_pressure;BME280_temperature;BME280_humidity;BME280_pressure;Samples;Min_cycle;Max_cycle;Signal;HPM_P1;HPM_P2
2022/11/05 00:09:28;;;;;;;;;;;;;;;;;;5064864;28;19928;-65
2022/11/05 00:17:09;;;;;;;;;;;;;;;;;;5049184;28;19932;-64
2022/11/05 00:19:36;;;;;;;;;;;;;;;;;;5044361;28;19928;-65
2022/11/05 00:27:31;;;;;;;;;;;;;;;;;;5052033;28;19929;-64
2022/11/05 00:29:57;;;;;;;;;;;;;;;;;;5056210;28;19929;-64
2022/11/05 00:32:24;;;;;;;;;;;;;;;;;;5042905;28;19999;-64
2022/11/05 00:34:50;;;;;;;;;;;;;;;;;;5050455;28;19932;-64
2022/11/05 00:37:16;;;;;;;;;;;;;;;;;;5053142;28;19928;-64
2022/11/05 00:39:42;;;;;;;;;;;;;;;;;;5055264;28;19928;-63
2022/11/05 00:45:00;;;;;;;;;;;;;;;;;;5045703;28;19932;-64
2022/11/05 00:50:11;;;;;;;;;;;;;;;;;;5055559;28;19948;-64
2022/11/05 00:52:55;;;;;;;;;;;;;;;;;;5051525;28;20404;-64
2022/11/05 00:55:22;;;;;;;;;;;;;;;;;;5043252;28;19952;-65
2022/11/05 00:57:48;;;;;;;;;;;;;;;;;;5051551;28;19993;-64
2022/11/05 01:00:14;;;;;;;;;;;;;;;;;;5045522;28;20736;-64
2022/11/05 01:02:41;;;;;;;;;;;;;;;;;;5053827;28;19925;-64
2022/11/05 01:05:07;;;;;;;;;;;;;;;;;;5049123;28;19982;-65
2022/11/05 01:07:33;;;;;;;;;;;;;;;;;;5054626;28;19929;-64
2022/11/05 01:09:59;;;;;;;;;;;;;;;;;;5053485;28;19924;-64
2022/11/05 01:12:25;;;;;;;;;;;;;;;;;;5042152;28;19948;-64
2022/11/05 01:14:52;;;;;;;;;;;;;;;;;;5050082;28;19929;-64
2022/11/05 01:17:18;;;;;;;;;;;;;;;;;;5054085;28;20559;-64
2022/11/05 01:19:44;;;;;;;;;;;;;;;;;;5051147;28;19982;-64
2022/11/05 01:22:10;;;;;;;;;;;;;;;;;;5054115;28;20296;-64
2022/11/05 01:24:36;;;;;;;;;;;;;;;;;;5046723;28;19929;-64
2022/11/05 01:27:02;;;;;;;;;;;;;;;;;;5052790;28;19929;-64
2022/11/05 01:29:29;;;;;;;;;;;;;;;;;;5043550;28;20005;-64
2022/11/05 01:31:55;;;;;;;;;;;;;;;;;;5056063;28;20321;-63
2022/11/05 01:34:21;;;;;;;;;;;;;;;;;;5055303;28;19936;-64
2022/11/05 01:36:48;;;;;;;;;;;;;;;;;;5062538;28;19928;-64
2022/11/05 01:39:14;;;;;;;;;;;;;;;;;;5047813;28;19963;-64
2022/11/05 01:41:40;;;;;;;;;;;;;;;;;;5044846;28;19933;-64
2022/11/05 01:44:06;;;;;;;;;;;;;;;;;;5056992;28;19929;-64
2022/11/05 01:46:32;;;;;;;;;;;;;;;;;;5058652;28;20310;-64
2022/11/05 01:48:59;;;;;;;;;;;;;;;;;;5056518;28;19933;-64
2022/11/05 01:51:28;;;;;;;;;;;;;;;;;;5053488;28;19928;-64
2022/11/05 01:53:54;;;;;;;;;;;;;;;;;;5052542;28;20363;-64
2022/11/05 01:56:20;;;;;;;;;;;;;;;;;;5041562;28;20336;-64
2022/11/05 01:58:47;;;;;;;;;;;;;;;;;;5056315;28;20400;-64
2022/11/05 02:01:13;;;;;;;;;;;;;;;;;;5054861;28;19928;-64
2022/11/05 02:03:39;;;;;;;;;;;;;;;;;;5052432;28;19929;-64
2022/11/05 02:06:08;;;;;;;;;;;;;;;;;;5051157;28;20577;-64
2022/11/05 02:08:34;;;;;;;;;;;;;;;;;;5037714;28;19955;-64
2022/11/05 02:11:00;;;;;;;;;;;;;;;;;;5045904;28;19936;-64
2022/11/05 02:13:27;;;;;;;;;;;;;;;;;;5042577;28;19982;-64
2022/11/05 02:15:53;;;;;;;;;;;;;;;;;;5058257;28;19929;-64
2022/11/05 02:18:19;;;;;;;;;;;;;;;;;;5052851;28;19935;-64
2022/11/05 02:20:45;;;;;;;;;;;;;;;;;;5053077;28;19928;-64
2022/11/05 02:23:17;;;;;;;;;;;;;;;;;;5042585;28;19982;-64
2022/11/05 02:25:43;;;;;;;;;;;;;;;;;;5039178;28;20458;-64
2022/11/05 02:28:09;;;;;;;;;;;;;;;;;;5052106;28;19928;-64
2022/11/05 02:30:35;;;;;;;;;;;;;;;;;;5044603;28;20373;-64
2022/11/05 02:33:01;;;;;;;;;;;;;;;;;;5054584;28;19932;-64
2022/11/05 02:35:28;;;;;;;;;;;;;;;;;;5040557;28;19925;-64
2022/11/05 02:37:54;;;;;;;;;;;;;;;;;;5047386;28;19928;-64
2022/11/05 02:40:20;;;;;;;;;;;;;;;;;;5053646;28;19978;-64
2022/11/05 02:42:46;;;;;;;;;;;;;;;;;;5048648;28;20422;-64
2022/11/05 02:45:12;;;;;;;;;;;;;;;;;;5035259;28;19924;-64
2022/11/05 02:47:39;;;;;;;;;;;;;;;;;;5043133;28;19986;-64
2022/11/05 02:50:05;;;;;;;;;;;;;;;;;;5051620;28;19928;-64
2022/11/05 02:52:31;;;;;;;;;;;;;;;;;;5047577;28;19928;-64
2022/11/05 02:54:57;;;;;;;;;;;;;;;;;;5050296;28;19975;-64
2022/11/05 02:57:23;;;;;;;;;;;;;;;;;;5052919;28;20603;-64
2022/11/05 02:59:49;;;;;;;;;;;;;;;;;;5038814;28;19928;-64
2022/11/05 03:02:16;;;;;;;;;;;;;;;;;;5057604;28;20342;-64
2022/11/05 03:04:42;;;;;;;;;;;;;;;;;;5043887;28;19979;-64
2022/11/05 03:07:08;;;;;;;;;;;;;;;;;;5058462;28;20407;-63
2022/11/05 03:09:34;;;;;;;;;;;;;;;;;;5052541;28;19983;-64
2022/11/05 03:12:01;;;;;;;;;;;;;;;;;;5048924;28;19928;-64
2022/11/05 03:14:27;;;;;;;;;;;;;;;;;;5048754;28;20343;-64
2022/11/05 03:16:53;;;;;;;;;;;;;;;;;;5043404;28;19929;-63
2022/11/05 03:19:19;;;;;;;;;;;;;;;;;;5048715;28;19929;-64
2022/11/05 03:21:45;;;;;;;;;;;;;;;;;;5055409;28;19929;-64
2022/11/05 03:24:11;;;;;;;;;;;;;;;;;;5051225;28;19986;-64
2022/11/05 03:26:38;;;;;;;;;;;;;;;;;;5059370;28;19932;-64
2022/11/05 03:29:05;;;;;;;;;;;;;;;;;;5046906;28;19978;-64
2022/11/05 03:31:31;;;;;;;;;;;;;;;;;;5048236;28;19928;-64
2022/11/05 03:33:57;;;;;;;;;;;;;;;;;;5044727;28;20299;-64
2022/11/05 03:36:24;;;;;;;;;;;;;;;;;;5057965;28;19928;-64
2022/11/05 03:38:50;;;;;;;;;;;;;;;;;;5056168;28;19933;-64
2022/11/05 03:41:21;;;;;;;;;;;;;;;;;;5047651;28;19936;-64
2022/11/05 03:43:53;;;;;;;;;;;;;;;;;;5049164;28;19928;-64
2022/11/05 03:46:46;;;;;;;;;;;;;;;;;;5039788;28;19935;-64
2022/11/05 03:49:20;;;;;;;;;;;;;;;;;;5045373;28;19932;-65
2022/11/05 03:52:11;;;;;;;;;;;;;;;;;;5040962;28;19929;-64
2022/11/05 03:54:39;;;;;;;;;;;;;;;;;;5050533;28;19928;-64
2022/11/05 03:57:30;;;;;;;;;;;;;;;;;;5007293;28;19925;-64
2022/11/05 03:59:57;;;;;;;;;;;;;;;;;;5011369;28;19936;-64
2022/11/05 04:02:59;;;;;;;;;;;;;;;;;;5005211;28;20630;-63
2022/11/05 04:05:36;;;;;;;;;;;;;;;;;;5003260;28;19936;-64
2022/11/05 04:14:07;;;;;;;;;;;;;;;;;;5004992;28;19965;-64
2022/11/05 04:24:07;;;;;;;;;;;;;;;;;;5053488;28;19929;-63
2022/11/05 04:24:49;;;;;;;;;;;;;;;;;;5060170;28;20438;-64
2022/11/05 04:27:16;;;;;;;;;;;;;;;;;;5041936;28;19924;-64
2022/11/05 04:32:27;;;;;;;;;;;;;;;;;;5047692;28;19928;-64
2022/11/05 04:34:53;;;;;;;;;;;;;;;;;;5052611;28;19995;-65
2022/11/05 04:37:19;;;;;;;;;;;;;;;;;;5042943;28;20682;-65
2022/11/05 04:39:45;;;;;;;;;;;;;;;;;;5052879;28;20327;-64
2022/11/05 04:42:12;;;;;;;;;;;;;;;;;;5054547;28;19986;-64
2022/11/05 04:44:38;;;;;;;;;;;;;;;;;;5053736;28;19932;-65
2022/11/05 04:47:04;;;;;;;;;;;;;;;;;;5057958;28;19979;-65
2022/11/05 04:49:30;;;;;;;;;;;;;;;;;;5049999;28;19928;-64
2022/11/05 04:51:56;;;;;;;;;;;;;;;;;;5060704;28;19932;-64
2022/11/05 04:54:22;;;;;;;;;;;;;;;;;;5055170;28;19929;-64
2022/11/05 04:56:49;;;;;;;;;;;;;;;;;;5071287;28;19928;-64
2022/11/05 04:59:15;;;;;;;;;;;;;;;;;;5070910;28;20430;-64
2022/11/05 05:01:41;;;;;;;;;;;;;;;;;;5069339;28;19970;-63
2022/11/05 05:04:07;;;;;;;;;;;;;;;;;;5083261;28;19927;-63
2022/11/05 05:06:33;;;;;;;;;;;;;;;;;;5066848;28;19928;-64
2022/11/05 05:09:00;;;;;;;;;;;;;;;;;;5064785;28;20393;-64
2022/11/05 05:11:26;;;;;;;;;;;;;;;;;;5065607;28;19978;-64
2022/11/05 05:13:52;;;;;;;;;;;;;;;;;;5077894;28;19993;-65
2022/11/05 05:16:19;;;;;;;;;;;;;;;;;;5076825;28;19928;-64
2022/11/05 05:18:45;;;;;;;;;;;;;;;;;;5066177;28;19929;-64
2022/11/05 05:23:56;;;;;;;;;;;;;;;;;;5062113;28;20556;-64
2022/11/05 05:26:23;;;;;;;;;;;;;;;;;;5078850;28;19928;-64
2022/11/05 05:28:49;;;;;;;;;;;;;;;;;;5073331;28;19932;-63
2022/11/05 05:31:15;;;;;;;;;;;;;;;;;;5067463;28;19932;-64
2022/11/05 05:33:41;;;;;;;;;;;;;;;;;;5069844;28;19936;-63
2022/11/05 05:36:07;;;;;;;;;;;;;;;;;;5061577;28;19986;-64
2022/11/05 05:38:36;;;;;;;;;;;;;;;;;;5072716;28;20015;-64
2022/11/05 05:41:02;;;;;;;;;;;;;;;;;;5063783;28;19979;-65
2022/11/05 05:43:29;;;;;;;;;;;;;;;;;;5069276;28;20343;-65
2022/11/05 05:45:56;;;;;;;;;;;;;;;;;;5064892;28;20335;-64
2022/11/05 05:48:22;;;;;;;;;;;;;;;;;;5068654;28;19932;-64
2022/11/05 05:50:48;;;;;;;;;;;;;;;;;;5064588;28;19928;-64
2022/11/05 05:53:14;;;;;;;;;;;;;;;;;;5061570;28;19928;-64
2022/11/05 05:55:40;;;;;;;;;;;;;;;;;;5066819;28;19974;-64
2022/11/05 05:58:07;;;;;;;;;;;;;;;;;;5066085;28;20360;-64
2022/11/05 06:00:33;;;;;;;;;;;;;;;;;;5079874;28;19985;-64
2022/11/05 06:02:59;;;;;;;;;;;;;;;;;;5076769;28;19943;-63
2022/11/05 06:05:26;;;;;;;;;;;;;;;;;;5058875;28;19928;-64
2022/11/05 06:07:52;;;;;;;;;;;;;;;;;;5072906;28;20373;-64
2022/11/05 06:10:18;;;;;;;;;;;;;;;;;;5062792;28;19929;-64
2022/11/05 06:12:44;;;;;;;;;;;;;;;;;;5072112;28;19928;-64
2022/11/05 06:15:11;;;;;;;;;;;;;;;;;;5060420;28;19928;-64
2022/11/05 06:17:37;;;;;;;;;;;;;;;;;;5066023;28;19978;-68
2022/11/05 06:20:03;;;;;;;;;;;;;;;;;;5072392;28;19928;-64
2022/11/05 06:22:29;;;;;;;;;;;;;;;;;;5065319;28;20273;-64
2022/11/05 06:24:55;;;;;;;;;;;;;;;;;;5067165;28;19968;-64
2022/11/05 06:27:22;;;;;;;;;;;;;;;;;;5069592;28;19924;-64
2022/11/05 06:29:48;;;;;;;;;;;;;;;;;;5074101;28;20581;-64
2022/11/05 06:32:14;;;;;;;;;;;;;;;;;;5064150;28;19983;-64
2022/11/05 06:34:40;;;;;;;;;;;;;;;;;;5067564;28;19925;-64
2022/11/05 06:37:06;;;;;;;;;;;;;;;;;;5085575;28;19924;-64
2022/11/05 06:39:33;;;;;;;;;;;;;;;;;;5060231;28;19998;-64
2022/11/05 06:41:59;;;;;;;;;;;;;;;;;;5077546;28;20289;-64
2022/11/05 06:44:43;;;;;;;;;;;;;;;;;;5069752;28;19928;-64
2022/11/05 06:47:09;;;;;;;;;;;;;;;;;;5067133;28;19990;-64
2022/11/05 06:49:35;;;;;;;;;;;;;;;;;;5074518;28;19928;-65
2022/11/05 06:52:01;;;;;;;;;;;;;;;;;;5081723;28;19928;-65
2022/11/05 06:54:27;;;;;;;;;;;;;;;;;;5062762;28;19989;-65
2022/11/05 06:56:54;;;;;;;;;;;;;;;;;;5063629;28;19933;-65
2022/11/05 06:59:20;;;;;;;;;;;;;;;;;;5058966;28;19928;-65
2022/11/05 07:01:46;;;;;;;;;;;;;;;;;;5059325;28;19970;-65
2022/11/05 07:04:12;;;;;;;;;;;;;;;;;;5068873;28;19924;-65
2022/11/05 07:06:38;;;;;;;;;;;;;;;;;;5062118;28;20034;-64
2022/11/05 07:09:05;;;;;;;;;;;;;;;;;;5066858;28;20480;-63
2022/11/05 07:11:31;;;;;;;;;;;;;;;;;;5061080;28;19928;-66
2022/11/05 07:13:57;;;;;;;;;;;;;;;;;;5056457;28;19933;-65
2022/11/05 07:16:23;;;;;;;;;;;;;;;;;;5071296;28;19993;-65
2022/11/05 07:18:51;;;;;;;;;;;;;;;;;;5059482;28;19932;-65
2022/11/05 07:21:18;;;;;;;;;;;;;;;;;;5066006;28;19928;-65
2022/11/05 07:23:44;;;;;;;;;;;;;;;;;;5065415;28;19932;-65
2022/11/05 07:26:10;;;;;;;;;;;;;;;;;;5044446;28;19936;-65
2022/11/05 07:28:37;;;;;;;;;;;;;;;;;;5060716;28;20343;-65
2022/11/05 07:31:03;;;;;;;;;;;;;;;;;;5060481;28;20376;-65
2022/11/05 07:33:29;;;;;;;;;;;;;;;;;;5069606;28;19935;-65
2022/11/05 07:36:01;;;;;;;;;;;;;;;;;;5061527;28;19939;-65
2022/11/05 07:38:27;;;;;;;;;;;;;;;;;;5068257;28;19970;-65
2022/11/05 07:40:53;;;;;;;;;;;;;;;;;;5055487;28;19932;-65
2022/11/05 07:43:19;;;;;;;;;;;;;;;;;;5066001;28;20384;-65
2022/11/05 07:45:46;;;;;;;;;;;;;;;;;;5078983;28;19928;-64
2022/11/05 07:48:12;;;;;;;;;;;;;;;;;;5083421;28;20737;-65
2022/11/05 07:50:38;;;;;;;;;;;;;;;;;;5081057;28;20384;-65
2022/11/05 07:53:05;;;;;;;;;;;;;;;;;;5066883;28;19982;-65
2022/11/05 07:55:31;;;;;;;;;;;;;;;;;;5066843;28;20370;-65
2022/11/05 07:57:57;;;;;;;;;;;;;;;;;;5074836;28;20300;-65
2022/11/05 08:00:23;;;;;;;;;;;;;;;;;;5081704;28;19924;-65
2022/11/05 08:02:49;;;;;;;;;;;;;;;;;;5079240;28;19932;-65
2022/11/05 08:05:16;;;;;;;;;;;;;;;;;;5064062;28;20494;-66
2022/11/05 08:07:42;;;;;;;;;;;;;;;;;;5073766;28;19928;-65
2022/11/05 08:10:08;;;;;;;;;;;;;;;;;;5067793;28;19928;-65
2022/11/05 08:12:34;;;;;;;;;;;;;;;;;;5077428;28;20424;-65
2022/11/05 08:15:01;;;;;;;;;;;;;;;;;;5085261;28;19982;-65
2022/11/05 08:17:27;;;;;;;;;;;;;;;;;;5075494;28;19928;-64
2022/11/05 08:19:53;;;;;;;;;;;;;;;;;;5081400;28;20402;-65
2022/11/05 08:22:19;;;;;;;;;;;;;;;;;;5066096;28;20654;-65
2022/11/05 08:24:46;;;;;;;;;;;;;;;;;;5066241;28;19929;-65
2022/11/05 08:27:12;;;;;;;;;;;;;;;;;;5064577;28;19936;-66
2022/11/05 08:29:38;;;;;;;;;;;;;;;;;;5072600;28;19975;-65
2022/11/05 08:32:04;;;;;;;;;;;;;;;;;;5081813;28;19932;-65
2022/11/05 08:34:31;;;;;;;;;;;;;;;;;;5069497;28;19958;-65
2022/11/05 08:36:57;;;;;;;;;;;;;;;;;;5069403;28;19975;-64
2022/11/05 08:39:23;;;;;;;;;;;;;;;;;;5064442;28;19931;-65
2022/11/05 08:41:49;;;;;;;;;;;;;;;;;;5074368;28;19928;-65
2022/11/05 08:44:15;;;;;;;;;;;;;;;;;;5065760;28;19932;-65
2022/11/05 08:46:42;;;;;;;;;;;;;;;;;;5072567;28;19977;-65
2022/11/05 08:49:08;;;;;;;;;;;;;;;;;;5061482;28;20032;-65
2022/11/05 08:51:34;;;;;;;;;;;;;;;;;;5064767;28;19973;-65
2022/11/05 08:54:00;;;;;;;;;;;;;;;;;;5076025;28;19928;-65
2022/11/05 08:56:26;;;;;;;;;;;;;;;;;;5066290;28;19925;-65
2022/11/05 08:58:53;;;;;;;;;;;;;;;;;;5076085;28;20754;-65
2022/11/05 09:01:19;;;;;;;;;;;;;;;;;;5077438;28;19928;-65
2022/11/05 09:03:45;;;;;;;;;;;;;;;;;;5071372;28;19928;-65
2022/11/05 09:06:12;;;;;;;;;;;;;;;;;;5071068;28;20450;-65
2022/11/05 09:08:38;;;;;;;;;;;;;;;;;;5067600;28;19928;-64
2022/11/05 09:11:04;;;;;;;;;;;;;;;;;;5073036;28;19935;-65
2022/11/05 09:13:30;;;;;;;;;;;;;;;;;;5063195;28;20355;-64
2022/11/05 09:15:58;;;;;;;;;;;;;;;;;;5078979;28;20319;-65
2022/11/05 09:18:24;;;;;;;;;;;;;;;;;;5062940;28;20764;-66
2022/11/05 09:20:50;;;;;;;;;;;;;;;;;;5070728;28;19928;-65
2022/11/05 09:23:16;;;;;;;;;;;;;;;;;;5071989;28;20281;-65
2022/11/05 09:25:42;;;;;;;;;;;;;;;;;;5071999;28;20005;-65
2022/11/05 09:28:09;;;;;;;;;;;;;;;;;;5075352;28;20521;-65
2022/11/05 09:30:40;;;;;;;;;;;;;;;;;;5069947;28;19982;-65
2022/11/05 09:33:06;;;;;;;;;;;;;;;;;;5073254;28;19925;-65
2022/11/05 09:35:32;;;;;;;;;;;;;;;;;;5067313;28;19974;-65
2022/11/05 09:37:58;;;;;;;;;;;;;;;;;;5086336;28;19976;-65
2022/11/05 09:40:26;;;;;;;;;;;;;;;;;;5069862;28;20321;-65
2022/11/05 09:42:53;;;;;;;;;;;;;;;;;;5069194;28;19932;-65
2022/11/05 09:45:20;;;;;;;;;;;;;;;;;;5072562;28;19928;-65
2022/11/05 09:47:46;;;;;;;;;;;;;;;;;;5061016;28;19950;-66
2022/11/05 09:50:12;;;;;;;;;;;;;;;;;;5070031;28;20415;-66
2022/11/05 09:52:38;;;;;;;;;;;;;;;;;;5080373;28;19936;-64
2022/11/05 09:55:04;;;;;;;;;;;;;;;;;;5066991;28;20001;-65
2022/11/05 09:57:31;;;;;;;;;;;;;;;;;;5072756;28;19936;-65
2022/11/05 09:59:57;;;;;;;;;;;;;;;;;;5048275;28;19928;-65
2022/11/05 10:02:23;;;;;;;;;;;;;;;;;;5073139;28;19932;-66
2022/11/05 10:04:49;;;;;;;;;;;;;;;;;;5043656;28;20015;-65
2022/11/05 10:07:15;;;;;;;;;;;;;;;;;;5072394;28;20392;-66
2022/11/05 10:09:44;;;;;;;;;;;;;;;;;;5074809;28;20390;-65
2022/11/05 10:12:10;;;;;;;;;;;;;;;;;;5082853;28;19977;-65
2022/11/05 10:14:36;;;;;;;;;;;;;;;;;;5068254;28;19974;-66
2022/11/05 10:17:02;;;;;;;;;;;;;;;;;;5068868;28;20571;-65
2022/11/05 10:19:29;;;;;;;;;;;;;;;;;;5076053;28;19925;-65
2022/11/05 10:21:55;;;;;;;;;;;;;;;;;;5047369;28;20296;-66
2022/11/05 10:24:36;;;;;;;;;;;;;;;;;;5070272;28;19925;-65
2022/11/05 10:27:03;;;;;;;;;;;;;;;;;;5065615;28;19924;-66
2022/11/05 10:29:29;;;;;;;;;;;;;;;;;;5071187;28;19928;-65
2022/11/05 10:31:55;;;;;;;;;;;;;;;;;;5071090;28;19936;-65
2022/11/05 10:34:21;;;;;;;;;;;;;;;;;;5065431;28;19925;-65
2022/11/05 10:36:47;;;;;;;;;;;;;;;;;;5074954;28;20369;-64
2022/11/05 10:39:14;;;;;;;;;;;;;;;;;;5064255;28;20331;-65
2022/11/05 10:41:40;;;;;;;;;;;;;;;;;;5071758;28;19928;-64
2022/11/05 10:44:06;;;;;;;;;;;;;;;;;;5063717;28;19954;-65
2022/11/05 10:46:32;;;;;;;;;;;;;;;;;;5073244;28;19932;-64
2022/11/05 10:48:59;;;;;;;;;;;;;;;;;;5072192;28;19970;-66
2022/11/05 10:51:25;;;;;;;;;;;;;;;;;;5080781;28;19974;-65
2022/11/05 10:53:51;;;;;;;;;;;;;;;;;;5071575;28;19974;-65
2022/11/05 10:56:21;;;;;;;;;;;;;;;;;;5063551;28;19951;-65
2022/11/05 10:58:47;;;;;;;;;;;;;;;;;;5069059;28;19932;-65
2022/11/05 11:01:13;;;;;;;;;;;;;;;;;;5062347;28;19978;-65
2022/11/05 11:03:39;;;;;;;;;;;;;;;;;;5080179;28;20020;-65
2022/11/05 11:06:06;;;;;;;;;;;;;;;;;;5084768;28;19932;-65
2022/11/05 11:08:32;;;;;;;;;;;;;;;;;;5061609;28;19932;-65
2022/11/05 11:10:58;;;;;;;;;;;;;;;;;;5071675;28;19924;-65
2022/11/05 11:13:25;;;;;;;;;;;;;;;;;;5073673;28;19928;-65
2022/11/05 11:15:51;;;;;;;;;;;;;;;;;;5073737;28;19931;-65
2022/11/05 11:18:17;;;;;;;;;;;;;;;;;;5061294;28;20372;-63
2022/11/05 11:20:44;;;;;;;;;;;;;;;;;;5072523;28;20276;-63
2022/11/05 11:23:11;;;;;;;;;;;;;;;;;;5070947;28;20343;-65
2022/11/05 11:25:38;;;;;;;;;;;;;;;;;;5064097;28;19929;-65
2022/11/05 11:28:04;;;;;;;;;;;;;;;;;;5069932;28;19936;-65
2022/11/05 11:30:30;;;;;;;;;;;;;;;;;;5069766;28;20487;-65
2022/11/05 11:32:56;;;;;;;;;;;;;;;;;;5075372;28;20339;-65
2022/11/05 11:35:23;;;;;;;;;;;;;;;;;;5065055;28;20292;-65
2022/11/05 11:37:49;;;;;;;;;;;;;;;;;;5071219;28;19935;-65
2022/11/05 11:40:16;;;;;;;;;;;;;;;;;;5074471;28;19939;-65
2022/11/05 11:42:42;;;;;;;;;;;;;;;;;;5075596;28;19925;-65
2022/11/05 11:45:08;;;;;;;;;;;;;;;;;;5077174;28;19939;-65
2022/11/05 11:47:34;;;;;;;;;;;;;;;;;;5071686;28;19933;-66
2022/11/05 11:50:01;;;;;;;;;;;;;;;;;;5081908;28;19924;-66
2022/11/05 11:52:27;;;;;;;;;;;;;;;;;;5060022;28;19923;-65
2022/11/05 11:54:53;;;;;;;;;;;;;;;;;;5071962;28;20339;-65
2022/11/05 11:57:19;;;;;;;;;;;;;;;;;;5071863;28;19980;-65
2022/11/05 11:59:46;;;;;;;;;;;;;;;;;;5074018;28;19967;-65
2022/11/05 12:02:32;;;;;;;;;;;;;;;;;;5071300;28;19925;-66
2022/11/05 12:04:58;;;;;;;;;;;;;;;;;;5056055;28;20788;-65
2022/11/05 12:07:24;;;;;;;;;;;;;;;;;;5072100;28;19927;-65
2022/11/05 12:09:50;;;;;;;;;;;;;;;;;;5064221;28;19924;-65
2022/11/05 12:12:17;;;;;;;;;;;;;;;;;;5078410;28;19928;-65
2022/11/05 12:14:43;;;;;;;;;;;;;;;;;;5070711;28;19994;-66
2022/11/05 12:17:11;;;;;;;;;;;;;;;;;;5066997;28;20400;-66
2022/11/05 12:19:37;;;;;;;;;;;;;;;;;;5075987;28;19997;-66
2022/11/05 12:22:04;;;;;;;;;;;;;;;;;;5070943;28;20393;-66
2022/11/05 12:24:30;;;;;;;;;;;;;;;;;;5074352;28;19936;-66
2022/11/05 12:26:56;;;;;;;;;;;;;;;;;;5074481;28;19932;-66
2022/11/05 12:29:22;;;;;;;;;;;;;;;;;;5079732;28;19924;-66
2022/11/05 12:31:49;;;;;;;;;;;;;;;;;;5072722;28;20437;-66
2022/11/05 12:34:15;;;;;;;;;;;;;;;;;;5062393;28;20388;-66
2022/11/05 12:36:41;;;;;;;;;;;;;;;;;;5079706;28;19947;-66
2022/11/05 12:39:07;;;;;;;;;;;;;;;;;;5072650;28;20392;-66
2022/11/05 12:41:33;;;;;;;;;;;;;;;;;;5085869;28;19989;-67
2022/11/05 12:43:59;;;;;;;;;;;;;;;;;;5073121;28;19925;-66
2022/11/05 12:46:25;;;;;;;;;;;;;;;;;;5072823;28;19981;-64
2022/11/05 12:48:52;;;;;;;;;;;;;;;;;;5074959;28;20399;-66
2022/11/05 12:51:18;;;;;;;;;;;;;;;;;;5067786;28;19970;-65
2022/11/05 12:53:44;;;;;;;;;;;;;;;;;;5073396;28;19932;-66
2022/11/05 12:56:10;;;;;;;;;;;;;;;;;;5067184;28;19973;-66
2022/11/05 12:58:37;;;;;;;;;;;;;;;;;;5078732;28;19928;-65
2022/11/05 13:01:03;;;;;;;;;;;;;;;;;;5065558;28;19974;-66
2022/11/05 13:03:29;;;;;;;;;;;;;;;;;;5071437;28;19924;-66
2022/11/05 13:05:55;;;;;;;;;;;;;;;;;;5080356;28;19932;-66
2022/11/05 13:08:25;;;;;;;;;;;;;;;;;;5074575;28;19929;-66
2022/11/05 13:10:51;;;;;;;;;;;;;;;;;;5075239;28;19932;-66
2022/11/05 13:13:17;;;;;;;;;;;;;;;;;;5060514;28;20408;-66
2022/11/05 13:15:43;;;;;;;;;;;;;;;;;;5073052;28;20488;-66
2022/11/05 13:18:09;;;;;;;;;;;;;;;;;;5073547;28;19978;-66
2022/11/05 13:20:36;;;;;;;;;;;;;;;;;;5078931;28;19924;-66
2022/11/05 13:23:02;;;;;;;;;;;;;;;;;;5090412;28;19924;-66
2022/11/05 13:25:28;;;;;;;;;;;;;;;;;;5068906;28;19928;-66
2022/11/05 13:27:55;;;;;;;;;;;;;;;;;;5069018;28;20707;-66
2022/11/05 13:30:21;;;;;;;;;;;;;;;;;;5067508;28;20471;-66
2022/11/05 13:32:47;;;;;;;;;;;;;;;;;;5076054;28;19978;-66
2022/11/05 13:35:13;;;;;;;;;;;;;;;;;;5064226;28;19925;-66
2022/11/05 13:40:24;;;;;;;;;;;;;;;;;;5058747;28;19929;-65
2022/11/05 13:42:50;;;;;;;;;;;;;;;;;;5066256;28;19978;-66
2022/11/05 13:45:17;;;;;;;;;;;;;;;;;;5078582;28;20715;-66
2022/11/05 13:47:43;;;;;;;;;;;;;;;;;;5065289;28;19978;-66
2022/11/05 13:50:09;;;;;;;;;;;;;;;;;;5077405;28;20453;-66
2022/11/05 13:52:35;;;;;;;;;;;;;;;;;;5065657;28;20373;-66
2022/11/05 13:55:02;;;;;;;;;;;;;;;;;;5067422;28;19924;-66
2022/11/05 13:57:28;;;;;;;;;;;;;;;;;;5067430;28;19958;-66
2022/11/05 13:59:54;;;;;;;;;;;;;;;;;;5071659;28;20913;-66
2022/11/05 14:02:20;;;;;;;;;;;;;;;;;;5073295;28;19986;-66
2022/11/05 14:04:47;;;;;;;;;;;;;;;;;;5067649;28;19935;-66
2022/11/05 14:07:13;;;;;;;;;;;;;;;;;;5077307;28;19924;-66
2022/11/05 14:09:39;;;;;;;;;;;;;;;;;;5062912;28;19928;-66
2022/11/05 14:12:05;;;;;;;;;;;;;;;;;;5079867;28;20385;-66
2022/11/05 14:14:31;;;;;;;;;;;;;;;;;;5078032;28;19929;-66
2022/11/05 14:16:57;;;;;;;;;;;;;;;;;;5050351;28;19928;-66
2022/11/05 14:19:24;;;;;;;;;;;;;;;;;;5081041;28;19981;-66
2022/11/05 14:21:50;;;;;;;;;;;;;;;;;;5075476;28;20354;-66
2022/11/05 14:24:16;;;;;;;;;;;;;;;;;;5077854;28;19924;-65
2022/11/05 14:26:42;;;;;;;;;;;;;;;;;;5064595;28;19982;-66
2022/11/05 14:29:08;;;;;;;;;;;;;;;;;;5069523;28;20377;-66
2022/11/05 14:31:35;;;;;;;;;;;;;;;;;;5070734;28;19974;-66
2022/11/05 14:34:22;;;;;;;;;;;;;;;;;;5072661;28;19927;-66
2022/11/05 14:36:48;;;;;;;;;;;;;;;;;;5073698;28;20448;-66
2022/11/05 14:39:14;;;;;;;;;;;;;;;;;;5061862;28;20371;-66
2022/11/05 14:41:41;;;;;;;;;;;;;;;;;;5068935;28;19932;-66
2022/11/05 14:44:07;;;;;;;;;;;;;;;;;;5071986;28;19977;-66
2022/11/05 14:46:33;;;;;;;;;;;;;;;;;;5078487;28;19978;-66
2022/11/05 14:48:59;;;;;;;;;;;;;;;;;;5075777;28;19925;-66
2022/11/05 14:51:30;;;;;;;;;;;;;;;;;;5055418;28;20038;-66
2022/11/05 14:53:56;;;;;;;;;;;;;;;;;;5073267;28;19982;-66
2022/11/05 14:56:22;;;;;;;;;;;;;;;;;;5064381;28;19928;-66
2022/11/05 14:58:48;;;;;;;;;;;;;;;;;;5069816;28;19933;-66
2022/11/05 15:01:15;;;;;;;;;;;;;;;;;;5074308;28;19928;-66
2022/11/05 15:03:41;;;;;;;;;;;;;;;;;;5082105;28;20005;-66
2022/11/05 15:06:11;;;;;;;;;;;;;;;;;;5078074;28;19924;-66
2022/11/05 15:08:37;;;;;;;;;;;;;;;;;;5077064;28;19944;-66
2022/11/05 15:11:04;;;;;;;;;;;;;;;;;;5068548;28;19925;-66
2022/11/05 15:13:30;;;;;;;;;;;;;;;;;;5071836;28;19947;-66
2022/11/05 15:15:56;;;;;;;;;;;;;;;;;;5076908;28;19932;-66
2022/11/05 15:18:22;;;;;;;;;;;;;;;;;;5068305;28;19978;-66
2022/11/05 15:20:49;;;;;;;;;;;;;;;;;;5063166;28;19928;-66
2022/11/05 15:23:15;;;;;;;;;;;;;;;;;;5076709;28;19932;-66
2022/11/05 15:25:41;;;;;;;;;;;;;;;;;;5061744;28;19924;-66
2022/11/05 15:28:07;;;;;;;;;;;;;;;;;;5074464;28;20445;-66
2022/11/05 15:30:34;;;;;;;;;;;;;;;;;;5079093;28;19955;-66
2022/11/05 15:33:00;;;;;;;;;;;;;;;;;;5077827;28;19924;-66
2022/11/05 15:35:26;;;;;;;;;;;;;;;;;;5061221;28;19955;-66
2022/11/05 15:37:52;;;;;;;;;;;;;;;;;;5076610;28;20439;-66
2022/11/05 15:40:25;;;;;;;;;;;;;;;;;;5068339;28;19932;-66
2022/11/05 15:42:51;;;;;;;;;;;;;;;;;;5068465;28;19933;-65
2022/11/05 15:45:18;;;;;;;;;;;;;;;;;;5076326;28;19924;-66
2022/11/05 15:47:44;;;;;;;;;;;;;;;;;;5054459;28;20440;-66
2022/11/05 15:50:10;;;;;;;;;;;;;;;;;;5076689;28;19989;-66
2022/11/05 15:52:44;;;;;;;;;;;;;;;;;;5067253;28;20377;-66
2022/11/05 15:55:10;;;;;;;;;;;;;;;;;;5068059;28;20390;-66
2022/11/05 15:57:36;;;;;;;;;;;;;;;;;;5075057;28;20442;-66
2022/11/05 16:00:05;;;;;;;;;;;;;;;;;;5058161;28;19978;-66
2022/11/05 16:02:31;;;;;;;;;;;;;;;;;;5073751;28;20426;-66
2022/11/05 16:04:58;;;;;;;;;;;;;;;;;;5073032;28;19928;-65
2022/11/05 16:07:24;;;;;;;;;;;;;;;;;;5083796;28;19932;-65
2022/11/05 16:09:50;;;;;;;;;;;;;;;;;;5076220;28;19924;-66
2022/11/05 16:12:16;;;;;;;;;;;;;;;;;;5071149;28;20385;-66
2022/11/05 16:14:42;;;;;;;;;;;;;;;;;;5065826;28;19924;-66
2022/11/05 16:17:09;;;;;;;;;;;;;;;;;;5060628;28;19928;-66
2022/11/05 16:19:35;;;;;;;;;;;;;;;;;;5080947;28;20517;-65
2022/11/05 16:22:05;;;;;;;;;;;;;;;;;;5060788;28;19932;-66
2022/11/05 16:24:31;;;;;;;;;;;;;;;;;;5074685;28;19928;-65
2022/11/05 16:26:57;;;;;;;;;;;;;;;;;;5072243;28;19928;-66
2022/11/05 16:29:28;;;;;;;;;;;;;;;;;;5069343;28;19928;-66
2022/11/05 16:31:54;;;;;;;;;;;;;;;;;;5072689;28;19978;-65
2022/11/05 16:34:20;;;;;;;;;;;;;;;;;;5071969;28;19924;-66
2022/11/05 16:36:46;;;;;;;;;;;;;;;;;;5080950;28;19925;-66
2022/11/05 16:39:13;;;;;;;;;;;;;;;;;;5069722;28;19928;-66
2022/11/05 16:41:39;;;;;;;;;;;;;;;;;;5069021;28;20728;-65
2022/11/05 16:44:05;;;;;;;;;;;;;;;;;;5060721;28;20312;-66
2022/11/05 16:46:32;;;;;;;;;;;;;;;;;;5073767;28;20347;-66
2022/11/05 16:48:59;;;;;;;;;;;;;;;;;;5080432;28;20841;-65
2022/11/05 16:51:25;;;;;;;;;;;;;;;;;;5074662;28;20422;-66
2022/11/05 16:53:52;;;;;;;;;;;;;;;;;;5079534;28;20296;-65
2022/11/05 16:56:18;;;;;;;;;;;;;;;;;;5070664;28;19974;-65
2022/11/05 16:58:45;;;;;;;;;;;;;;;;;;5067740;28;20393;-65
2022/11/05 17:01:11;;;;;;;;;;;;;;;;;;5066216;28;19924;-65
2022/11/05 17:03:37;;;;;;;;;;;;;;;;;;5072526;28;19925;-65
2022/11/05 17:06:03;;;;;;;;;;;;;;;;;;5070938;28;20300;-65
2022/11/05 17:08:30;;;;;;;;;;;;;;;;;;5066707;28;19928;-65
2022/11/05 17:10:56;;;;;;;;;;;;;;;;;;5079508;28;19932;-64
2022/11/05 17:13:22;;;;;;;;;;;;;;;;;;5066483;28;19927;-64
2022/11/05 17:15:48;;;;;;;;;;;;;;;;;;5075238;28;19999;-64
2022/11/05 17:18:15;;;;;;;;;;;;;;;;;;5079593;28;19931;-65
2022/11/05 17:20:44;;;;;;;;;;;;;;;;;;5083695;28;20418;-64
2022/11/05 17:23:10;;;;;;;;;;;;;;;;;;5078081;28;20525;-65
2022/11/05 17:25:36;;;;;;;;;;;;;;;;;;5068632;28;19940;-65
2022/11/05 17:28:03;;;;;;;;;;;;;;;;;;5084026;28;20034;-65